sensor_id;sensor_type;location;lat;lon;timestamp;P1;durP1;ratioP1;P2;durP2;ratioP2
55776;SDS011;54079;44.540;18.784;2023-09-19T00:02:02;4.85;;;4.35;;
55776;SDS011;54079;44.540;18.784;2023-09-19T00:04:32;4.40;;;4.00;;
55776;SDS011;54079;44.540;18.784;2023-09-19T00:06:58;6.65;;;4.82;;
55776;SDS011;54079;44.540;18.784;2023-09-19T00:09:24;4.10;;;3.70;;
55776;SDS011;54079;44.540;18.784;2023-09-19T00:11:53;4.57;;;4.18;;
55776;SDS011;54079;44.540;18.784;2023-09-19T00:14:19;5.20;;;4.13;;
55776;SDS011;54079;44.540;18.784;2023-09-19T00:16:45;4.00;;;3.70;;
55776;SDS011;54079;44.540;18.784;2023-09-19T00:19:14;6.13;;;5.15;;
55776;SDS011;54079;44.540;18.784;2023-09-19T00:21:41;6.05;;;4.10;;
55776;SDS011;54079;44.540;18.784;2023-09-19T00:24:08;5.72;;;5.13;;
55776;SDS011;54079;44.540;18.784;2023-09-19T00:26:34;6.32;;;4.88;;
55776;SDS011;54079;44.540;18.784;2023-09-19T00:29:01;5.53;;;4.97;;
55776;SDS011;54079;44.540;18.784;2023-09-19T00:31:29;6.20;;;5.57;;
55776;SDS011;54079;44.540;18.784;2023-09-19T00:33:55;5.47;;;4.97;;
55776;SDS011;54079;44.540;18.784;2023-09-19T00:36:27;6.57;;;4.55;;
55776;SDS011;54079;44.540;18.784;2023-09-19T00:38:54;8.18;;;5.72;;
55776;SDS011;54079;44.540;18.784;2023-09-19T00:41:20;5.45;;;4.95;;
55776;SDS011;54079;44.540;18.784;2023-09-19T00:43:46;6.93;;;5.55;;
55776;SDS011;54079;44.540;18.784;2023-09-19T00:46:15;5.82;;;5.30;;
55776;SDS011;54079;44.540;18.784;2023-09-19T00:48:42;5.60;;;5.03;;
55776;SDS011;54079;44.540;18.784;2023-09-19T00:51:08;5.07;;;4.68;;
55776;SDS011;54079;44.540;18.784;2023-09-19T00:53:35;5.82;;;5.32;;
55776;SDS011;54079;44.540;18.784;2023-09-19T00:56:02;5.47;;;4.95;;
55776;SDS011;54079;44.540;18.784;2023-09-19T00:58:32;4.93;;;4.22;;
55776;SDS011;54079;44.540;18.784;2023-09-19T01:01:01;5.45;;;3.97;;
55776;SDS011;54079;44.540;18.784;2023-09-19T01:03:28;4.15;;;3.30;;
55776;SDS011;54079;44.540;18.784;2023-09-19T01:05:54;3.65;;;3.35;;
55776;SDS011;54079;44.540;18.784;2023-09-19T01:08:21;3.47;;;3.03;;
55776;SDS011;54079;44.540;18.784;2023-09-19T01:10:59;8.90;;;4.03;;
55776;SDS011;54079;44.540;18.784;2023-09-19T01:13:31;4.35;;;3.05;;
55776;SDS011;54079;44.540;18.784;2023-09-19T01:18:43;8.80;;;3.92;;
55776;SDS011;54079;44.540;18.784;2023-09-19T01:21:29;9.38;;;4.57;;
55776;SDS011;54079;44.540;18.784;2023-09-19T01:29:35;6.38;;;3.97;;
55776;SDS011;54079;44.540;18.784;2023-09-19T01:32:05;7.78;;;4.18;;
55776;SDS011;54079;44.540;18.784;2023-09-19T01:37:14;5.05;;;3.17;;
55776;SDS011;54079;44.540;18.784;2023-09-19T01:39:44;6.65;;;3.22;;
55776;SDS011;54079;44.540;18.784;2023-09-19T01:45:19;4.60;;;3.00;;
55776;SDS011;54079;44.540;18.784;2023-09-19T01:48:25;8.43;;;3.78;;
55776;SDS011;54079;44.540;18.784;2023-09-19T01:51:07;4.93;;;3.13;;
55776;SDS011;54079;44.540;18.784;2023-09-19T01:53:40;5.18;;;3.67;;
55776;SDS011;54079;44.540;18.784;2023-09-19T01:56:28;3.73;;;2.77;;
55776;SDS011;54079;44.540;18.784;2023-09-19T01:59:02;10.48;;;4.10;;
55776;SDS011;54079;44.540;18.784;2023-09-19T02:01:32;7.38;;;4.38;;
55776;SDS011;54079;44.540;18.784;2023-09-19T02:03:59;4.25;;;3.20;;
55776;SDS011;54079;44.540;18.784;2023-09-19T02:06:26;4.00;;;2.70;;
55776;SDS011;54079;44.540;18.784;2023-09-19T02:08:53;4.03;;;3.28;;
55776;SDS011;54079;44.540;18.784;2023-09-19T02:11:19;4.28;;;3.20;;
55776;SDS011;54079;44.540;18.784;2023-09-19T02:13:45;4.38;;;3.97;;
55776;SDS011;54079;44.540;18.784;2023-09-19T02:16:11;3.38;;;2.47;;
55776;SDS011;54079;44.540;18.784;2023-09-19T02:18:38;4.93;;;2.88;;
55776;SDS011;54079;44.540;18.784;2023-09-19T02:21:04;7.68;;;3.33;;
55776;SDS011;54079;44.540;18.784;2023-09-19T02:23:32;5.10;;;3.42;;
55776;SDS011;54079;44.540;18.784;2023-09-19T02:25:58;3.78;;;3.13;;
55776;SDS011;54079;44.540;18.784;2023-09-19T02:28:29;7.20;;;3.25;;
55776;SDS011;54079;44.540;18.784;2023-09-19T02:31:00;7.13;;;3.20;;
55776;SDS011;54079;44.540;18.784;2023-09-19T02:33:26;6.22;;;3.60;;
55776;SDS011;54079;44.540;18.784;2023-09-19T02:35:58;5.32;;;3.20;;
55776;SDS011;54079;44.540;18.784;2023-09-19T02:38:27;3.95;;;2.35;;
55776;SDS011;54079;44.540;18.784;2023-09-19T02:40:54;3.92;;;2.42;;
55776;SDS011;54079;44.540;18.784;2023-09-19T02:43:20;3.58;;;2.60;;
55776;SDS011;54079;44.540;18.784;2023-09-19T02:45:47;6.80;;;2.67;;
55776;SDS011;54079;44.540;18.784;2023-09-19T02:48:18;3.50;;;2.45;;
55776;SDS011;54079;44.540;18.784;2023-09-19T02:50:44;7.95;;;4.55;;
55776;SDS011;54079;44.540;18.784;2023-09-19T02:53:11;4.30;;;3.60;;
55776;SDS011;54079;44.540;18.784;2023-09-19T02:55:38;4.55;;;2.78;;
55776;SDS011;54079;44.540;18.784;2023-09-19T02:58:05;5.75;;;4.00;;
55776;SDS011;54079;44.540;18.784;2023-09-19T03:00:36;4.43;;;2.75;;
55776;SDS011;54079;44.540;18.784;2023-09-19T03:03:03;3.60;;;2.70;;
55776;SDS011;54079;44.540;18.784;2023-09-19T03:05:31;4.32;;;2.78;;
55776;SDS011;54079;44.540;18.784;2023-09-19T03:07:58;4.63;;;2.53;;
55776;SDS011;54079;44.540;18.784;2023-09-19T03:10:26;6.32;;;4.57;;
55776;SDS011;54079;44.540;18.784;2023-09-19T03:12:53;5.50;;;3.38;;
55776;SDS011;54079;44.540;18.784;2023-09-19T03:15:19;6.45;;;4.10;;
55776;SDS011;54079;44.540;18.784;2023-09-19T03:17:47;4.13;;;3.38;;
55776;SDS011;54079;44.540;18.784;2023-09-19T03:20:14;6.72;;;3.47;;
55776;SDS011;54079;44.540;18.784;2023-09-19T03:22:44;7.32;;;3.50;;
55776;SDS011;54079;44.540;18.784;2023-09-19T03:25:11;5.13;;;2.80;;
55776;SDS011;54079;44.540;18.784;2023-09-19T03:27:38;5.72;;;3.00;;
55776;SDS011;54079;44.540;18.784;2023-09-19T03:30:05;6.68;;;2.83;;
55776;SDS011;54079;44.540;18.784;2023-09-19T03:32:47;5.85;;;2.58;;
55776;SDS011;54079;44.540;18.784;2023-09-19T03:35:15;12.00;;;5.15;;
55776;SDS011;54079;44.540;18.784;2023-09-19T03:37:42;5.53;;;3.33;;
55776;SDS011;54079;44.540;18.784;2023-09-19T03:40:09;7.07;;;3.80;;
55776;SDS011;54079;44.540;18.784;2023-09-19T03:42:38;9.80;;;4.55;;
55776;SDS011;54079;44.540;18.784;2023-09-19T03:45:06;4.63;;;3.72;;
55776;SDS011;54079;44.540;18.784;2023-09-19T03:47:32;5.18;;;3.15;;
55776;SDS011;54079;44.540;18.784;2023-09-19T03:49:58;8.32;;;3.75;;
55776;SDS011;54079;44.540;18.784;2023-09-19T03:52:24;8.23;;;3.70;;
55776;SDS011;54079;44.540;18.784;2023-09-19T03:54:51;3.30;;;2.30;;
55776;SDS011;54079;44.540;18.784;2023-09-19T03:57:16;10.88;;;4.30;;
55776;SDS011;54079;44.540;18.784;2023-09-19T03:59:45;6.45;;;3.55;;
55776;SDS011;54079;44.540;18.784;2023-09-19T04:02:12;5.10;;;3.22;;
55776;SDS011;54079;44.540;18.784;2023-09-19T04:04:47;7.00;;;3.50;;
55776;SDS011;54079;44.540;18.784;2023-09-19T04:07:14;7.18;;;3.80;;
55776;SDS011;54079;44.540;18.784;2023-09-19T04:09:40;7.70;;;5.15;;
55776;SDS011;54079;44.540;18.784;2023-09-19T04:12:06;6.95;;;4.35;;
55776;SDS011;54079;44.540;18.784;2023-09-19T04:14:34;5.57;;;4.30;;
55776;SDS011;54079;44.540;18.784;2023-09-19T04:17:01;5.18;;;3.13;;
55776;SDS011;54079;44.540;18.784;2023-09-19T04:19:28;8.52;;;5.70;;
55776;SDS011;54079;44.540;18.784;2023-09-19T04:21:54;7.32;;;4.97;;
55776;SDS011;54079;44.540;18.784;2023-09-19T04:24:19;10.07;;;3.75;;
55776;SDS011;54079;44.540;18.784;2023-09-19T04:26:45;5.55;;;2.92;;
55776;SDS011;54079;44.540;18.784;2023-09-19T04:29:12;4.28;;;3.22;;
55776;SDS011;54079;44.540;18.784;2023-09-19T04:31:39;3.88;;;2.42;;
55776;SDS011;54079;44.540;18.784;2023-09-19T04:34:08;7.22;;;3.45;;
55776;SDS011;54079;44.540;18.784;2023-09-19T04:36:35;6.25;;;3.75;;
55776;SDS011;54079;44.540;18.784;2023-09-19T04:39:02;8.90;;;3.70;;
55776;SDS011;54079;44.540;18.784;2023-09-19T04:41:32;7.10;;;3.60;;
55776;SDS011;54079;44.540;18.784;2023-09-19T04:43:59;8.85;;;4.32;;
55776;SDS011;54079;44.540;18.784;2023-09-19T04:46:25;7.57;;;3.45;;
55776;SDS011;54079;44.540;18.784;2023-09-19T04:48:51;8.32;;;4.10;;
55776;SDS011;54079;44.540;18.784;2023-09-19T04:51:17;6.95;;;3.80;;
55776;SDS011;54079;44.540;18.784;2023-09-19T04:53:44;7.55;;;4.13;;
55776;SDS011;54079;44.540;18.784;2023-09-19T04:56:10;3.97;;;3.40;;
55776;SDS011;54079;44.540;18.784;2023-09-19T04:58:36;5.05;;;3.00;;
55776;SDS011;54079;44.540;18.784;2023-09-19T05:01:02;8.32;;;3.15;;
55776;SDS011;54079;44.540;18.784;2023-09-19T05:03:29;5.43;;;3.08;;
55776;SDS011;54079;44.540;18.784;2023-09-19T05:05:55;10.63;;;4.13;;
55776;SDS011;54079;44.540;18.784;2023-09-19T05:08:21;10.35;;;3.92;;
55776;SDS011;54079;44.540;18.784;2023-09-19T05:10:48;11.95;;;4.00;;
55776;SDS011;54079;44.540;18.784;2023-09-19T05:13:14;13.95;;;5.28;;
55776;SDS011;54079;44.540;18.784;2023-09-19T05:15:40;4.20;;;3.10;;
55776;SDS011;54079;44.540;18.784;2023-09-19T05:18:06;5.43;;;3.08;;
55776;SDS011;54079;44.540;18.784;2023-09-19T05:20:32;5.95;;;3.42;;
55776;SDS011;54079;44.540;18.784;2023-09-19T05:23:03;7.88;;;3.80;;
55776;SDS011;54079;44.540;18.784;2023-09-19T05:25:34;9.40;;;4.03;;
55776;SDS011;54079;44.540;18.784;2023-09-19T05:28:05;7.28;;;3.45;;
55776;SDS011;54079;44.540;18.784;2023-09-19T05:30:32;6.22;;;3.03;;
55776;SDS011;54079;44.540;18.784;2023-09-19T05:32:58;7.00;;;3.33;;
55776;SDS011;54079;44.540;18.784;2023-09-19T05:35:24;6.43;;;3.35;;
55776;SDS011;54079;44.540;18.784;2023-09-19T05:37:51;10.57;;;4.13;;
55776;SDS011;54079;44.540;18.784;2023-09-19T05:40:18;9.75;;;4.97;;
55776;SDS011;54079;44.540;18.784;2023-09-19T05:42:45;8.07;;;3.80;;
55776;SDS011;54079;44.540;18.784;2023-09-19T05:45:11;14.15;;;5.57;;
55776;SDS011;54079;44.540;18.784;2023-09-19T05:47:41;6.72;;;3.78;;
55776;SDS011;54079;44.540;18.784;2023-09-19T05:50:08;4.15;;;2.65;;
55776;SDS011;54079;44.540;18.784;2023-09-19T05:52:38;12.00;;;4.50;;
55776;SDS011;54079;44.540;18.784;2023-09-19T05:55:04;4.93;;;2.83;;
55776;SDS011;54079;44.540;18.784;2023-09-19T05:57:32;8.15;;;3.47;;
55776;SDS011;54079;44.540;18.784;2023-09-19T05:59:59;4.70;;;2.92;;
55776;SDS011;54079;44.540;18.784;2023-09-19T06:02:25;12.23;;;3.88;;
55776;SDS011;54079;44.540;18.784;2023-09-19T06:04:55;5.95;;;3.55;;
55776;SDS011;54079;44.540;18.784;2023-09-19T06:07:22;5.82;;;2.80;;
55776;SDS011;54079;44.540;18.784;2023-09-19T06:09:51;9.73;;;3.63;;
55776;SDS011;54079;44.540;18.784;2023-09-19T06:12:19;5.32;;;2.88;;
55776;SDS011;54079;44.540;18.784;2023-09-19T06:14:45;6.75;;;3.95;;
55776;SDS011;54079;44.540;18.784;2023-09-19T06:17:11;9.07;;;4.30;;
55776;SDS011;54079;44.540;18.784;2023-09-19T06:19:37;5.28;;;3.60;;
55776;SDS011;54079;44.540;18.784;2023-09-19T06:22:03;12.07;;;4.10;;
55776;SDS011;54079;44.540;18.784;2023-09-19T06:24:29;6.32;;;3.42;;
55776;SDS011;54079;44.540;18.784;2023-09-19T06:26:55;9.43;;;4.15;;
55776;SDS011;54079;44.540;18.784;2023-09-19T06:29:21;5.70;;;3.60;;
55776;SDS011;54079;44.540;18.784;2023-09-19T06:31:49;6.53;;;3.53;;
55776;SDS011;54079;44.540;18.784;2023-09-19T06:34:16;7.90;;;3.20;;
55776;SDS011;54079;44.540;18.784;2023-09-19T06:36:43;6.63;;;5.28;;
55776;SDS011;54079;44.540;18.784;2023-09-19T06:39:10;5.63;;;3.67;;
55776;SDS011;54079;44.540;18.784;2023-09-19T06:41:37;10.70;;;7.55;;
55776;SDS011;54079;44.540;18.784;2023-09-19T06:44:04;10.30;;;4.85;;
55776;SDS011;54079;44.540;18.784;2023-09-19T06:46:31;4.93;;;3.72;;
55776;SDS011;54079;44.540;18.784;2023-09-19T06:49:00;8.18;;;3.88;;
55776;SDS011;54079;44.540;18.784;2023-09-19T06:51:31;6.78;;;4.50;;
55776;SDS011;54079;44.540;18.784;2023-09-19T06:53:59;7.85;;;6.63;;
55776;SDS011;54079;44.540;18.784;2023-09-19T06:56:26;8.70;;;4.78;;
55776;SDS011;54079;44.540;18.784;2023-09-19T06:58:52;12.98;;;6.15;;
55776;SDS011;54079;44.540;18.784;2023-09-19T07:01:18;9.80;;;4.40;;
55776;SDS011;54079;44.540;18.784;2023-09-19T07:03:44;9.63;;;4.80;;
55776;SDS011;54079;44.540;18.784;2023-09-19T07:06:11;10.30;;;5.45;;
55776;SDS011;54079;44.540;18.784;2023-09-19T07:08:37;11.85;;;5.45;;
55776;SDS011;54079;44.540;18.784;2023-09-19T07:11:03;9.73;;;4.22;;
55776;SDS011;54079;44.540;18.784;2023-09-19T07:13:31;6.65;;;3.60;;
55776;SDS011;54079;44.540;18.784;2023-09-19T07:16:00;11.43;;;4.45;;
55776;SDS011;54079;44.540;18.784;2023-09-19T07:18:26;6.93;;;4.30;;
55776;SDS011;54079;44.540;18.784;2023-09-19T07:20:56;7.20;;;3.92;;
55776;SDS011;54079;44.540;18.784;2023-09-19T07:23:30;7.13;;;4.55;;
55776;SDS011;54079;44.540;18.784;2023-09-19T07:26:00;9.05;;;5.13;;
55776;SDS011;54079;44.540;18.784;2023-09-19T07:28:30;6.97;;;4.05;;
55776;SDS011;54079;44.540;18.784;2023-09-19T07:30:56;5.05;;;4.15;;
55776;SDS011;54079;44.540;18.784;2023-09-19T07:33:22;8.93;;;5.13;;
55776;SDS011;54079;44.540;18.784;2023-09-19T07:35:51;7.40;;;3.90;;
55776;SDS011;54079;44.540;18.784;2023-09-19T07:38:17;5.38;;;3.92;;
55776;SDS011;54079;44.540;18.784;2023-09-19T07:40:43;8.95;;;3.85;;
55776;SDS011;54079;44.540;18.784;2023-09-19T07:43:09;11.25;;;7.00;;
55776;SDS011;54079;44.540;18.784;2023-09-19T07:45:35;9.05;;;5.93;;
55776;SDS011;54079;44.540;18.784;2023-09-19T07:48:01;7.68;;;6.50;;
55776;SDS011;54079;44.540;18.784;2023-09-19T07:50:29;7.85;;;4.60;;
55776;SDS011;54079;44.540;18.784;2023-09-19T07:52:55;6.85;;;4.50;;
55776;SDS011;54079;44.540;18.784;2023-09-19T07:55:21;7.93;;;6.55;;
55776;SDS011;54079;44.540;18.784;2023-09-19T07:57:54;9.13;;;5.47;;
55776;SDS011;54079;44.540;18.784;2023-09-19T08:00:20;8.45;;;4.38;;
55776;SDS011;54079;44.540;18.784;2023-09-19T08:02:46;7.90;;;5.22;;
55776;SDS011;54079;44.540;18.784;2023-09-19T08:05:13;12.60;;;5.95;;
55776;SDS011;54079;44.540;18.784;2023-09-19T08:10:10;6.45;;;5.03;;
55776;SDS011;54079;44.540;18.784;2023-09-19T08:12:41;14.55;;;7.05;;
55776;SDS011;54079;44.540;18.784;2023-09-19T08:15:18;7.18;;;5.95;;
55776;SDS011;54079;44.540;18.784;2023-09-19T08:17:45;10.27;;;5.93;;
55776;SDS011;54079;44.540;18.784;2023-09-19T08:20:12;13.05;;;7.95;;
55776;SDS011;54079;44.540;18.784;2023-09-19T08:25:18;13.98;;;6.07;;
55776;SDS011;54079;44.540;18.784;2023-09-19T08:27:44;13.60;;;8.93;;
55776;SDS011;54079;44.540;18.784;2023-09-19T08:30:14;10.00;;;8.75;;
55776;SDS011;54079;44.540;18.784;2023-09-19T08:32:40;13.35;;;7.80;;
55776;SDS011;54079;44.540;18.784;2023-09-19T08:35:08;9.38;;;7.25;;
55776;SDS011;54079;44.540;18.784;2023-09-19T08:37:34;10.18;;;6.32;;
55776;SDS011;54079;44.540;18.784;2023-09-19T08:40:00;11.43;;;6.57;;
55776;SDS011;54079;44.540;18.784;2023-09-19T08:42:27;10.55;;;6.95;;
55776;SDS011;54079;44.540;18.784;2023-09-19T08:44:53;12.48;;;5.88;;
55776;SDS011;54079;44.540;18.784;2023-09-19T08:47:29;13.88;;;7.00;;
55776;SDS011;54079;44.540;18.784;2023-09-19T08:52:42;12.65;;;6.78;;
55776;SDS011;54079;44.540;18.784;2023-09-19T08:55:12;9.88;;;5.53;;
55776;SDS011;54079;44.540;18.784;2023-09-19T08:57:45;8.27;;;5.38;;
55776;SDS011;54079;44.540;18.784;2023-09-19T09:00:14;10.75;;;5.35;;
55776;SDS011;54079;44.540;18.784;2023-09-19T09:02:43;10.65;;;5.72;;
55776;SDS011;54079;44.540;18.784;2023-09-19T09:05:10;11.63;;;5.55;;
55776;SDS011;54079;44.540;18.784;2023-09-19T09:07:37;10.40;;;5.40;;
55776;SDS011;54079;44.540;18.784;2023-09-19T09:10:04;11.57;;;5.30;;
55776;SDS011;54079;44.540;18.784;2023-09-19T09:12:30;9.70;;;5.25;;
55776;SDS011;54079;44.540;18.784;2023-09-19T09:14:56;11.45;;;6.28;;
55776;SDS011;54079;44.540;18.784;2023-09-19T09:17:23;8.30;;;4.68;;
55776;SDS011;54079;44.540;18.784;2023-09-19T09:19:53;16.25;;;6.45;;
55776;SDS011;54079;44.540;18.784;2023-09-19T09:22:19;12.27;;;5.25;;
55776;SDS011;54079;44.540;18.784;2023-09-19T09:24:52;17.60;;;5.53;;
55776;SDS011;54079;44.540;18.784;2023-09-19T09:27:26;16.83;;;6.10;;
55776;SDS011;54079;44.540;18.784;2023-09-19T09:29:52;10.50;;;4.97;;
55776;SDS011;54079;44.540;18.784;2023-09-19T09:32:23;17.02;;;4.93;;
55776;SDS011;54079;44.540;18.784;2023-09-19T09:34:54;16.27;;;5.22;;
55776;SDS011;54079;44.540;18.784;2023-09-19T09:37:22;18.15;;;6.32;;
55776;SDS011;54079;44.540;18.784;2023-09-19T09:39:59;11.90;;;5.05;;
55776;SDS011;54079;44.540;18.784;2023-09-19T09:42:42;15.23;;;4.80;;
55776;SDS011;54079;44.540;18.784;2023-09-19T09:45:12;8.88;;;4.28;;
55776;SDS011;54079;44.540;18.784;2023-09-19T09:47:43;13.98;;;5.55;;
55776;SDS011;54079;44.540;18.784;2023-09-19T09:52:57;12.32;;;4.85;;
55776;SDS011;54079;44.540;18.784;2023-09-19T09:58:27;14.95;;;6.68;;
55776;SDS011;54079;44.540;18.784;2023-09-19T10:01:03;11.50;;;4.85;;
55776;SDS011;54079;44.540;18.784;2023-09-19T10:03:40;8.50;;;4.60;;
55776;SDS011;54079;44.540;18.784;2023-09-19T10:06:13;10.88;;;5.25;;
55776;SDS011;54079;44.540;18.784;2023-09-19T10:11:31;12.77;;;4.25;;
55776;SDS011;54079;44.540;18.784;2023-09-19T10:16:31;10.38;;;4.85;;
55776;SDS011;54079;44.540;18.784;2023-09-19T10:19:01;19.38;;;5.68;;
55776;SDS011;54079;44.540;18.784;2023-09-19T10:21:32;15.93;;;5.55;;
55776;SDS011;54079;44.540;18.784;2023-09-19T10:24:01;15.13;;;5.07;;
55776;SDS011;54079;44.540;18.784;2023-09-19T10:26:34;12.45;;;6.75;;
55776;SDS011;54079;44.540;18.784;2023-09-19T10:29:01;17.83;;;7.15;;
55776;SDS011;54079;44.540;18.784;2023-09-19T10:31:32;13.02;;;4.55;;
55776;SDS011;54079;44.540;18.784;2023-09-19T10:34:02;16.25;;;6.10;;
55776;SDS011;54079;44.540;18.784;2023-09-19T10:36:32;16.25;;;5.25;;
55776;SDS011;54079;44.540;18.784;2023-09-19T10:39:00;12.55;;;5.00;;
55776;SDS011;54079;44.540;18.784;2023-09-19T10:41:32;18.80;;;5.35;;
55776;SDS011;54079;44.540;18.784;2023-09-19T10:44:03;16.35;;;6.22;;
55776;SDS011;54079;44.540;18.784;2023-09-19T10:46:34;16.40;;;5.20;;
55776;SDS011;54079;44.540;18.784;2023-09-19T10:49:03;13.02;;;4.75;;
55776;SDS011;54079;44.540;18.784;2023-09-19T10:51:31;11.05;;;4.80;;
55776;SDS011;54079;44.540;18.784;2023-09-19T10:54:11;11.38;;;4.05;;
55776;SDS011;54079;44.540;18.784;2023-09-19T10:56:42;12.65;;;4.88;;
55776;SDS011;54079;44.540;18.784;2023-09-19T10:59:20;10.40;;;4.07;;
55776;SDS011;54079;44.540;18.784;2023-09-19T11:01:47;10.95;;;4.82;;
55776;SDS011;54079;44.540;18.784;2023-09-19T11:04:22;11.82;;;4.55;;
55776;SDS011;54079;44.540;18.784;2023-09-19T11:07:01;8.38;;;3.42;;
55776;SDS011;54079;44.540;18.784;2023-09-19T11:09:47;10.57;;;4.25;;
55776;SDS011;54079;44.540;18.784;2023-09-19T11:14:57;24.48;;;6.20;;
55776;SDS011;54079;44.540;18.784;2023-09-19T11:17:39;22.13;;;6.63;;
55776;SDS011;54079;44.540;18.784;2023-09-19T11:30:43;18.10;;;6.57;;
55776;SDS011;54079;44.540;18.784;2023-09-19T11:33:17;19.48;;;6.82;;
55776;SDS011;54079;44.540;18.784;2023-09-19T11:39:10;15.77;;;6.25;;
55776;SDS011;54079;44.540;18.784;2023-09-19T11:43:53;17.20;;;7.15;;
55776;SDS011;54079;44.540;18.784;2023-09-19T12:05:54;17.73;;;6.20;;
55776;SDS011;54079;44.540;18.784;2023-09-19T12:08:20;15.43;;;6.45;;
55776;SDS011;54079;44.540;18.784;2023-09-19T12:10:50;24.50;;;8.18;;
55776;SDS011;54079;44.540;18.784;2023-09-19T12:13:19;15.63;;;6.05;;
55776;SDS011;54079;44.540;18.784;2023-09-19T12:15:46;10.60;;;4.85;;
55776;SDS011;54079;44.540;18.784;2023-09-19T12:18:30;14.10;;;4.97;;
55776;SDS011;54079;44.540;18.784;2023-09-19T12:20:56;16.48;;;5.57;;
55776;SDS011;54079;44.540;18.784;2023-09-19T12:23:23;12.88;;;4.88;;
55776;SDS011;54079;44.540;18.784;2023-09-19T12:25:51;13.45;;;4.75;;
55776;SDS011;54079;44.540;18.784;2023-09-19T12:28:19;9.43;;;4.50;;
55776;SDS011;54079;44.540;18.784;2023-09-19T12:30:48;13.43;;;5.20;;
55776;SDS011;54079;44.540;18.784;2023-09-19T12:33:18;14.63;;;4.72;;
55776;SDS011;54079;44.540;18.784;2023-09-19T12:35:51;11.02;;;4.15;;
55776;SDS011;54079;44.540;18.784;2023-09-19T12:38:26;11.80;;;3.58;;
55776;SDS011;54079;44.540;18.784;2023-09-19T12:41:01;8.38;;;3.50;;
55776;SDS011;54079;44.540;18.784;2023-09-19T12:43:31;13.15;;;5.05;;
55776;SDS011;54079;44.540;18.784;2023-09-19T12:46:02;7.60;;;3.50;;
55776;SDS011;54079;44.540;18.784;2023-09-19T12:48:29;5.82;;;3.25;;
55776;SDS011;54079;44.540;18.784;2023-09-19T12:51:06;12.75;;;4.28;;
55776;SDS011;54079;44.540;18.784;2023-09-19T12:53:40;6.28;;;3.45;;
55776;SDS011;54079;44.540;18.784;2023-09-19T12:56:07;7.13;;;3.30;;
55776;SDS011;54079;44.540;18.784;2023-09-19T13:01:19;6.03;;;3.10;;
55776;SDS011;54079;44.540;18.784;2023-09-19T13:03:45;9.63;;;3.25;;
55776;SDS011;54079;44.540;18.784;2023-09-19T13:06:37;6.53;;;2.67;;
55776;SDS011;54079;44.540;18.784;2023-09-19T13:09:09;6.07;;;3.15;;
55776;SDS011;54079;44.540;18.784;2023-09-19T13:11:36;10.38;;;2.97;;
55776;SDS011;54079;44.540;18.784;2023-09-19T13:14:15;3.08;;;2.20;;
55776;SDS011;54079;44.540;18.784;2023-09-19T13:17:06;7.07;;;3.58;;
55776;SDS011;54079;44.540;18.784;2023-09-19T13:19:45;6.50;;;2.70;;
55776;SDS011;54079;44.540;18.784;2023-09-19T13:22:37;10.50;;;3.17;;
55776;SDS011;54079;44.540;18.784;2023-09-19T13:25:20;10.88;;;3.08;;
55776;SDS011;54079;44.540;18.784;2023-09-19T13:27:51;10.25;;;2.42;;
55776;SDS011;54079;44.540;18.784;2023-09-19T13:30:19;2.88;;;2.10;;
55776;SDS011;54079;44.540;18.784;2023-09-19T13:32:46;4.78;;;2.05;;
55776;SDS011;54079;44.540;18.784;2023-09-19T13:35:13;4.18;;;2.35;;
55776;SDS011;54079;44.540;18.784;2023-09-19T13:37:40;5.97;;;2.75;;
55776;SDS011;54079;44.540;18.784;2023-09-19T13:40:11;7.88;;;2.92;;
55776;SDS011;54079;44.540;18.784;2023-09-19T13:42:38;10.20;;;3.10;;
55776;SDS011;54079;44.540;18.784;2023-09-19T13:45:05;10.48;;;3.63;;
55776;SDS011;54079;44.540;18.784;2023-09-19T13:47:31;9.20;;;4.05;;
55776;SDS011;54079;44.540;18.784;2023-09-19T13:49:58;5.43;;;2.80;;
55776;SDS011;54079;44.540;18.784;2023-09-19T13:52:26;4.35;;;2.33;;
55776;SDS011;54079;44.540;18.784;2023-09-19T13:54:54;6.70;;;2.22;;
55776;SDS011;54079;44.540;18.784;2023-09-19T13:57:23;9.60;;;3.58;;
55776;SDS011;54079;44.540;18.784;2023-09-19T13:59:51;8.65;;;2.70;;
55776;SDS011;54079;44.540;18.784;2023-09-19T14:02:23;8.20;;;2.88;;
55776;SDS011;54079;44.540;18.784;2023-09-19T14:04:49;7.70;;;2.72;;
55776;SDS011;54079;44.540;18.784;2023-09-19T14:07:16;5.32;;;2.40;;
55776;SDS011;54079;44.540;18.784;2023-09-19T14:09:43;6.82;;;3.60;;
55776;SDS011;54079;44.540;18.784;2023-09-19T14:12:10;5.75;;;2.60;;
55776;SDS011;54079;44.540;18.784;2023-09-19T14:14:36;6.28;;;2.97;;
55776;SDS011;54079;44.540;18.784;2023-09-19T14:17:03;8.68;;;2.53;;
55776;SDS011;54079;44.540;18.784;2023-09-19T14:19:29;5.57;;;1.90;;
55776;SDS011;54079;44.540;18.784;2023-09-19T14:21:55;7.78;;;2.83;;
55776;SDS011;54079;44.540;18.784;2023-09-19T14:24:22;8.02;;;3.45;;
55776;SDS011;54079;44.540;18.784;2023-09-19T14:26:48;9.27;;;3.00;;
55776;SDS011;54079;44.540;18.784;2023-09-19T14:29:14;10.15;;;3.47;;
55776;SDS011;54079;44.540;18.784;2023-09-19T14:31:41;5.00;;;2.47;;
55776;SDS011;54079;44.540;18.784;2023-09-19T14:34:07;6.28;;;2.58;;
55776;SDS011;54079;44.540;18.784;2023-09-19T14:36:35;6.30;;;2.50;;
55776;SDS011;54079;44.540;18.784;2023-09-19T14:39:01;8.88;;;2.80;;
55776;SDS011;54079;44.540;18.784;2023-09-19T14:41:28;11.57;;;4.05;;
55776;SDS011;54079;44.540;18.784;2023-09-19T14:43:56;5.85;;;3.30;;
55776;SDS011;54079;44.540;18.784;2023-09-19T14:46:22;5.10;;;2.35;;
55776;SDS011;54079;44.540;18.784;2023-09-19T14:48:51;4.15;;;2.00;;
55776;SDS011;54079;44.540;18.784;2023-09-19T14:51:17;8.68;;;2.97;;
55776;SDS011;54079;44.540;18.784;2023-09-19T14:53:44;6.15;;;2.58;;
55776;SDS011;54079;44.540;18.784;2023-09-19T14:56:11;6.22;;;2.10;;
55776;SDS011;54079;44.540;18.784;2023-09-19T14:58:41;3.13;;;1.75;;
55776;SDS011;54079;44.540;18.784;2023-09-19T15:01:07;3.75;;;1.80;;
55776;SDS011;54079;44.540;18.784;2023-09-19T15:03:38;5.53;;;2.53;;
55776;SDS011;54079;44.540;18.784;2023-09-19T15:06:07;5.35;;;2.60;;
55776;SDS011;54079;44.540;18.784;2023-09-19T15:08:39;7.43;;;2.13;;
55776;SDS011;54079;44.540;18.784;2023-09-19T15:11:10;7.53;;;3.17;;
55776;SDS011;54079;44.540;18.784;2023-09-19T15:13:38;7.15;;;2.60;;
55776;SDS011;54079;44.540;18.784;2023-09-19T15:16:08;6.57;;;2.60;;
55776;SDS011;54079;44.540;18.784;2023-09-19T15:18:35;8.50;;;2.83;;
55776;SDS011;54079;44.540;18.784;2023-09-19T15:21:09;7.07;;;2.53;;
55776;SDS011;54079;44.540;18.784;2023-09-19T15:23:36;7.80;;;2.28;;
55776;SDS011;54079;44.540;18.784;2023-09-19T15:26:03;10.85;;;2.38;;
55776;SDS011;54079;44.540;18.784;2023-09-19T15:28:30;4.38;;;2.05;;
55776;SDS011;54079;44.540;18.784;2023-09-19T15:31:01;4.57;;;2.50;;
55776;SDS011;54079;44.540;18.784;2023-09-19T15:33:31;4.55;;;2.05;;
55776;SDS011;54079;44.540;18.784;2023-09-19T15:36:01;6.75;;;1.98;;
55776;SDS011;54079;44.540;18.784;2023-09-19T15:40:57;3.88;;;1.92;;
55776;SDS011;54079;44.540;18.784;2023-09-19T15:43:23;5.30;;;3.20;;
55776;SDS011;54079;44.540;18.784;2023-09-19T15:45:49;6.88;;;2.65;;
55776;SDS011;54079;44.540;18.784;2023-09-19T15:48:15;6.70;;;2.60;;
55776;SDS011;54079;44.540;18.784;2023-09-19T15:50:42;6.63;;;2.55;;
55776;SDS011;54079;44.540;18.784;2023-09-19T15:53:09;5.82;;;2.50;;
55776;SDS011;54079;44.540;18.784;2023-09-19T15:55:40;3.65;;;2.05;;
55776;SDS011;54079;44.540;18.784;2023-09-19T15:58:07;3.65;;;2.50;;